sensor_id;sensor_type;location;lat;lon;timestamp;pressure;altitude;pressure_sealevel;temperature;humidity
77017;BME280;65949;53.132;17.930;2023-07-22T00:00:30;100533.58;;;15.72;73.03
77017;BME280;65949;53.132;17.930;2023-07-22T00:03:17;100535.04;;;15.73;73.08
77017;BME280;65949;53.132;17.930;2023-07-22T00:05:43;100531.23;;;15.75;73.06
77017;BME280;65949;53.132;17.930;2023-07-22T00:08:10;100528.38;;;15.75;73.02
77017;BME280;65949;53.132;17.930;2023-07-22T00:10:41;100527.95;;;15.79;72.90
77017;BME280;65949;53.132;17.930;2023-07-22T00:13:08;100529.36;;;15.79;72.87
77017;BME280;65949;53.132;17.930;2023-07-22T00:15:35;100529.84;;;15.79;73.09
77017;BME280;65949;53.132;17.930;2023-07-22T00:18:01;100522.50;;;15.78;72.89
77017;BME280;65949;53.132;17.930;2023-07-22T00:20:28;100517.44;;;15.75;73.25
77017;BME280;65949;53.132;17.930;2023-07-22T00:22:55;100517.94;;;15.71;73.46
77017;BME280;65949;53.132;17.930;2023-07-22T00:25:22;100514.27;;;15.65;73.61
77017;BME280;65949;53.132;17.930;2023-07-22T00:27:49;100516.61;;;15.60;73.83
77017;BME280;65949;53.132;17.930;2023-07-22T00:30:15;100509.47;;;15.56;73.89
77017;BME280;65949;53.132;17.930;2023-07-22T00:32:42;100507.28;;;15.54;74.01
77017;BME280;65949;53.132;17.930;2023-07-22T00:35:09;100502.45;;;15.52;74.28
77017;BME280;65949;53.132;17.930;2023-07-22T00:37:36;100498.30;;;15.52;74.65
77017;BME280;65949;53.132;17.930;2023-07-22T00:40:03;100494.73;;;15.55;74.74
77017;BME280;65949;53.132;17.930;2023-07-22T00:42:32;100491.56;;;15.59;74.92
77017;BME280;65949;53.132;17.930;2023-07-22T00:44:59;100495.96;;;15.60;74.30
77017;BME280;65949;53.132;17.930;2023-07-22T00:47:25;100499.51;;;15.61;74.50
77017;BME280;65949;53.132;17.930;2023-07-22T00:49:52;100507.77;;;15.64;74.53
77017;BME280;65949;53.132;17.930;2023-07-22T00:52:19;100508.18;;;15.67;74.40
77017;BME280;65949;53.132;17.930;2023-07-22T00:54:46;100502.08;;;15.70;74.29
77017;BME280;65949;53.132;17.930;2023-07-22T00:57:14;100499.48;;;15.71;74.44
77017;BME280;65949;53.132;17.930;2023-07-22T00:59:41;100501.43;;;15.71;74.52
77017;BME280;65949;53.132;17.930;2023-07-22T01:02:08;100502.65;;;15.71;74.43
77017;BME280;65949;53.132;17.930;2023-07-22T01:04:35;100504.58;;;15.71;74.40
77017;BME280;65949;53.132;17.930;2023-07-22T01:07:04;100497.68;;;15.72;74.43
77017;BME280;65949;53.132;17.930;2023-07-22T01:09:37;100503.80;;;15.74;74.51
77017;BME280;65949;53.132;17.930;2023-07-22T01:12:05;100501.44;;;15.77;74.24
77017;BME280;65949;53.132;17.930;2023-07-22T01:14:39;100497.13;;;15.77;74.12
77017;BME280;65949;53.132;17.930;2023-07-22T01:17:08;100494.90;;;15.78;74.43
77017;BME280;65949;53.132;17.930;2023-07-22T01:19:35;100493.20;;;15.79;74.58
77017;BME280;65949;53.132;17.930;2023-07-22T01:22:06;100488.73;;;15.82;74.21
77017;BME280;65949;53.132;17.930;2023-07-22T01:24:34;100478.89;;;15.80;73.77
77017;BME280;65949;53.132;17.930;2023-07-22T01:27:01;100473.16;;;15.77;73.98
77017;BME280;65949;53.132;17.930;2023-07-22T01:29:29;100467.19;;;15.76;74.33
77017;BME280;65949;53.132;17.930;2023-07-22T01:31:56;100466.56;;;15.76;74.20
77017;BME280;65949;53.132;17.930;2023-07-22T01:34:22;100467.24;;;15.73;74.14
77017;BME280;65949;53.132;17.930;2023-07-22T01:36:51;100465.68;;;15.70;74.51
77017;BME280;65949;53.132;17.930;2023-07-22T01:39:17;100456.23;;;15.66;74.88
77017;BME280;65949;53.132;17.930;2023-07-22T01:41:48;100455.00;;;15.64;75.19
77017;BME280;65949;53.132;17.930;2023-07-22T01:44:15;100454.44;;;15.63;75.32
77017;BME280;65949;53.132;17.930;2023-07-22T01:46:41;100466.95;;;15.63;75.43
77017;BME280;65949;53.132;17.930;2023-07-22T01:49:11;100467.30;;;15.64;75.79
77017;BME280;65949;53.132;17.930;2023-07-22T01:51:39;100468.42;;;15.66;75.87
77017;BME280;65949;53.132;17.930;2023-07-22T01:54:09;100470.16;;;15.68;75.77
77017;BME280;65949;53.132;17.930;2023-07-22T01:56:36;100468.61;;;15.70;75.86
77017;BME280;65949;53.132;17.930;2023-07-22T01:59:03;100462.02;;;15.71;76.05
77017;BME280;65949;53.132;17.930;2023-07-22T02:01:31;100448.68;;;15.68;76.18
77017;BME280;65949;53.132;17.930;2023-07-22T02:03:57;100445.00;;;15.62;76.42
77017;BME280;65949;53.132;17.930;2023-07-22T02:06:24;100442.16;;;15.60;76.49
77017;BME280;65949;53.132;17.930;2023-07-22T02:08:50;100442.52;;;15.60;76.50
77017;BME280;65949;53.132;17.930;2023-07-22T02:11:17;100456.54;;;15.61;76.22
77017;BME280;65949;53.132;17.930;2023-07-22T02:13:44;100456.20;;;15.59;76.26
77017;BME280;65949;53.132;17.930;2023-07-22T02:16:10;100445.89;;;15.59;76.43
77017;BME280;65949;53.132;17.930;2023-07-22T02:18:40;100442.56;;;15.60;76.30
77017;BME280;65949;53.132;17.930;2023-07-22T02:21:06;100448.40;;;15.60;76.10
77017;BME280;65949;53.132;17.930;2023-07-22T02:23:33;100449.42;;;15.61;76.15
77017;BME280;65949;53.132;17.930;2023-07-22T02:26:00;100452.00;;;15.61;76.17
77017;BME280;65949;53.132;17.930;2023-07-22T02:28:27;100454.66;;;15.63;76.52
77017;BME280;65949;53.132;17.930;2023-07-22T02:30:54;100453.44;;;15.64;76.76
77017;BME280;65949;53.132;17.930;2023-07-22T02:33:21;100455.42;;;15.65;76.71
77017;BME280;65949;53.132;17.930;2023-07-22T02:35:48;100458.77;;;15.64;76.27
77017;BME280;65949;53.132;17.930;2023-07-22T02:38:15;100455.45;;;15.62;76.55
77017;BME280;65949;53.132;17.930;2023-07-22T02:40:42;100458.77;;;15.62;76.72
77017;BME280;65949;53.132;17.930;2023-07-22T02:43:10;100464.70;;;15.63;77.06
77017;BME280;65949;53.132;17.930;2023-07-22T02:45:37;100470.95;;;15.63;76.84
77017;BME280;65949;53.132;17.930;2023-07-22T02:48:04;100472.42;;;15.63;76.96
77017;BME280;65949;53.132;17.930;2023-07-22T02:50:31;100475.69;;;15.62;77.04
77017;BME280;65949;53.132;17.930;2023-07-22T02:52:57;100480.40;;;15.60;77.00
77017;BME280;65949;53.132;17.930;2023-07-22T02:55:24;100475.15;;;15.57;77.03
77017;BME280;65949;53.132;17.930;2023-07-22T02:57:51;100476.09;;;15.51;76.94
77017;BME280;65949;53.132;17.930;2023-07-22T03:00:19;100477.88;;;15.44;76.94
77017;BME280;65949;53.132;17.930;2023-07-22T03:02:54;100476.52;;;15.37;77.08
77017;BME280;65949;53.132;17.930;2023-07-22T03:05:27;100472.20;;;15.32;77.10
77017;BME280;65949;53.132;17.930;2023-07-22T03:07:55;100472.02;;;15.29;77.29
77017;BME280;65949;53.132;17.930;2023-07-22T03:10:22;100473.94;;;15.26;77.12
77017;BME280;65949;53.132;17.930;2023-07-22T03:12:49;100476.20;;;15.23;77.25
77017;BME280;65949;53.132;17.930;2023-07-22T03:15:16;100480.64;;;15.20;77.33
77017;BME280;65949;53.132;17.930;2023-07-22T03:17:43;100486.91;;;15.20;77.38
77017;BME280;65949;53.132;17.930;2023-07-22T03:20:10;100487.08;;;15.19;77.53
77017;BME280;65949;53.132;17.930;2023-07-22T03:22:41;100486.59;;;15.17;77.74
77017;BME280;65949;53.132;17.930;2023-07-22T03:25:12;100488.23;;;15.17;78.01
77017;BME280;65949;53.132;17.930;2023-07-22T03:27:39;100486.46;;;15.19;77.81
77017;BME280;65949;53.132;17.930;2023-07-22T03:30:06;100486.80;;;15.17;77.77
77017;BME280;65949;53.132;17.930;2023-07-22T03:32:37;100484.92;;;15.15;77.90
77017;BME280;65949;53.132;17.930;2023-07-22T03:35:03;100483.83;;;15.15;77.80
77017;BME280;65949;53.132;17.930;2023-07-22T03:37:30;100484.61;;;15.15;77.92
77017;BME280;65949;53.132;17.930;2023-07-22T03:39:58;100486.38;;;15.17;78.04
77017;BME280;65949;53.132;17.930;2023-07-22T03:42:24;100492.02;;;15.19;78.06
77017;BME280;65949;53.132;17.930;2023-07-22T03:44:51;100493.11;;;15.19;77.85
77017;BME280;65949;53.132;17.930;2023-07-22T03:47:19;100489.04;;;15.22;78.04
77017;BME280;65949;53.132;17.930;2023-07-22T03:49:46;100493.98;;;15.24;77.99
77017;BME280;65949;53.132;17.930;2023-07-22T03:52:12;100495.20;;;15.27;77.81
77017;BME280;65949;53.132;17.930;2023-07-22T03:54:40;100497.16;;;15.26;77.81
77017;BME280;65949;53.132;17.930;2023-07-22T03:57:07;100499.02;;;15.67;77.20
77017;BME280;65949;53.132;17.930;2023-07-22T03:59:33;100501.98;;;15.87;76.72
77017;BME280;65949;53.132;17.930;2023-07-22T04:02:00;100502.10;;;15.72;76.77
77017;BME280;65949;53.132;17.930;2023-07-22T04:04:26;100503.27;;;15.61;76.86
77017;BME280;65949;53.132;17.930;2023-07-22T04:06:53;100508.48;;;15.58;76.88
77017;BME280;65949;53.132;17.930;2023-07-22T04:09:20;100509.38;;;15.67;76.76
77017;BME280;65949;53.132;17.930;2023-07-22T04:11:46;100508.36;;;16.50;75.27
77017;BME280;65949;53.132;17.930;2023-07-22T04:14:13;100506.48;;;16.68;74.74
77017;BME280;65949;53.132;17.930;2023-07-22T04:16:39;100504.17;;;16.96;74.42
77017;BME280;65949;53.132;17.930;2023-07-22T04:19:06;100512.95;;;17.43;72.99
77017;BME280;65949;53.132;17.930;2023-07-22T04:21:33;100513.85;;;17.32;72.68
77017;BME280;65949;53.132;17.930;2023-07-22T04:23:59;100511.17;;;16.99;73.31
77017;BME280;65949;53.132;17.930;2023-07-22T04:26:26;100515.54;;;17.70;72.46
77017;BME280;65949;53.132;17.930;2023-07-22T04:28:54;100516.16;;;18.84;69.97
77017;BME280;65949;53.132;17.930;2023-07-22T04:31:20;100514.40;;;19.59;68.38
77017;BME280;65949;53.132;17.930;2023-07-22T04:33:47;100517.45;;;20.00;67.00
77017;BME280;65949;53.132;17.930;2023-07-22T04:36:13;100512.10;;;20.44;64.99
77017;BME280;65949;53.132;17.930;2023-07-22T04:38:40;100519.52;;;20.96;64.40
77017;BME280;65949;53.132;17.930;2023-07-22T04:41:06;100520.65;;;21.31;62.63
77017;BME280;65949;53.132;17.930;2023-07-22T04:43:33;100524.90;;;21.69;61.96
77017;BME280;65949;53.132;17.930;2023-07-22T04:46:00;100524.69;;;22.03;61.18
77017;BME280;65949;53.132;17.930;2023-07-22T04:48:27;100524.83;;;22.24;59.03
77017;BME280;65949;53.132;17.930;2023-07-22T04:50:53;100526.58;;;22.36;59.10
77017;BME280;65949;53.132;17.930;2023-07-22T04:53:21;100524.34;;;22.59;58.32
77017;BME280;65949;53.132;17.930;2023-07-22T04:55:47;100526.07;;;22.94;57.64
77017;BME280;65949;53.132;17.930;2023-07-22T04:58:14;100523.92;;;23.06;55.46
77017;BME280;65949;53.132;17.930;2023-07-22T05:00:41;100525.99;;;23.02;56.25
77017;BME280;65949;53.132;17.930;2023-07-22T05:03:09;100524.55;;;23.12;54.80
77017;BME280;65949;53.132;17.930;2023-07-22T05:05:35;100526.42;;;23.06;54.67
77017;BME280;65949;53.132;17.930;2023-07-22T05:08:02;100527.70;;;23.03;54.73
77017;BME280;65949;53.132;17.930;2023-07-22T05:10:29;100523.03;;;22.96;54.96
77017;BME280;65949;53.132;17.930;2023-07-22T05:12:55;100520.77;;;23.26;54.81
77017;BME280;65949;53.132;17.930;2023-07-22T05:15:23;100520.55;;;23.70;54.34
77017;BME280;65949;53.132;17.930;2023-07-22T05:17:50;100520.06;;;24.11;53.35
77017;BME280;65949;53.132;17.930;2023-07-22T05:20:17;100515.86;;;24.40;52.70
77017;BME280;65949;53.132;17.930;2023-07-22T05:22:44;100515.09;;;24.46;52.14
77017;BME280;65949;53.132;17.930;2023-07-22T05:25:10;100512.77;;;24.21;52.10
77017;BME280;65949;53.132;17.930;2023-07-22T05:27:37;100515.64;;;24.05;52.18
77017;BME280;65949;53.132;17.930;2023-07-22T05:30:04;100516.20;;;23.32;52.94
77017;BME280;65949;53.132;17.930;2023-07-22T05:32:31;100517.33;;;22.83;53.80
77017;BME280;65949;53.132;17.930;2023-07-22T05:34:58;100516.66;;;22.69;53.55
77017;BME280;65949;53.132;17.930;2023-07-22T05:37:24;100512.37;;;22.85;53.44
77017;BME280;65949;53.132;17.930;2023-07-22T05:39:51;100507.73;;;23.12;52.76
77017;BME280;65949;53.132;17.930;2023-07-22T05:42:18;100504.64;;;23.28;52.12
77017;BME280;65949;53.132;17.930;2023-07-22T05:44:45;100502.59;;;23.25;52.04
77017;BME280;65949;53.132;17.930;2023-07-22T05:47:12;100502.95;;;23.51;52.24
77017;BME280;65949;53.132;17.930;2023-07-22T05:49:42;100499.73;;;23.80;50.98
77017;BME280;65949;53.132;17.930;2023-07-22T05:52:08;100502.05;;;23.78;50.84
77017;BME280;65949;53.132;17.930;2023-07-22T05:54:35;100501.11;;;23.72;50.63
77017;BME280;65949;53.132;17.930;2023-07-22T05:57:02;100504.14;;;23.68;51.08
77017;BME280;65949;53.132;17.930;2023-07-22T05:59:30;100504.67;;;23.77;50.89
77017;BME280;65949;53.132;17.930;2023-07-22T06:01:57;100503.55;;;23.89;51.12
77017;BME280;65949;53.132;17.930;2023-07-22T06:04:24;100500.63;;;24.03;50.25
77017;BME280;65949;53.132;17.930;2023-07-22T06:06:50;100499.94;;;24.02;50.68
77017;BME280;65949;53.132;17.930;2023-07-22T06:09:17;100501.41;;;24.14;50.39
77017;BME280;65949;53.132;17.930;2023-07-22T06:11:44;100506.13;;;24.01;49.41
77017;BME280;65949;53.132;17.930;2023-07-22T06:14:10;100508.18;;;23.56;50.15
77017;BME280;65949;53.132;17.930;2023-07-22T06:16:37;100513.45;;;23.33;51.12
77017;BME280;65949;53.132;17.930;2023-07-22T06:19:03;100516.64;;;23.33;51.37
77017;BME280;65949;53.132;17.930;2023-07-22T06:21:30;100518.50;;;23.38;51.08
77017;BME280;65949;53.132;17.930;2023-07-22T06:23:57;100517.71;;;23.31;51.46
77017;BME280;65949;53.132;17.930;2023-07-22T06:26:23;100517.86;;;23.20;51.69
77017;BME280;65949;53.132;17.930;2023-07-22T06:28:50;100520.25;;;22.97;51.88
77017;BME280;65949;53.132;17.930;2023-07-22T06:31:17;100520.09;;;22.54;52.47
77017;BME280;65949;53.132;17.930;2023-07-22T06:33:44;100521.66;;;22.21;53.30
77017;BME280;65949;53.132;17.930;2023-07-22T06:36:11;100517.16;;;22.05;53.56
77017;BME280;65949;53.132;17.930;2023-07-22T06:38:37;100515.38;;;21.78;54.08
77017;BME280;65949;53.132;17.930;2023-07-22T06:41:04;100515.54;;;21.56;54.63
77017;BME280;65949;53.132;17.930;2023-07-22T06:43:30;100511.96;;;21.34;54.47
77017;BME280;65949;53.132;17.930;2023-07-22T06:45:57;100513.08;;;21.04;54.84
77017;BME280;65949;53.132;17.930;2023-07-22T06:48:24;100516.98;;;20.71;55.51
77017;BME280;65949;53.132;17.930;2023-07-22T06:50:50;100523.73;;;20.36;56.15
77017;BME280;65949;53.132;17.930;2023-07-22T06:53:17;100524.09;;;20.11;57.09
77017;BME280;65949;53.132;17.930;2023-07-22T06:55:51;100519.83;;;20.05;57.75
77017;BME280;65949;53.132;17.930;2023-07-22T06:58:19;100522.66;;;20.09;58.23
77017;BME280;65949;53.132;17.930;2023-07-22T07:00:46;100525.08;;;19.91;58.58
77017;BME280;65949;53.132;17.930;2023-07-22T07:03:12;100526.18;;;19.68;58.66
77017;BME280;65949;53.132;17.930;2023-07-22T07:05:39;100527.07;;;19.59;58.75
77017;BME280;65949;53.132;17.930;2023-07-22T07:08:08;100527.83;;;19.50;58.87
77017;BME280;65949;53.132;17.930;2023-07-22T07:10:38;100530.31;;;19.52;59.23
77017;BME280;65949;53.132;17.930;2023-07-22T07:13:05;100529.44;;;19.61;59.13
77017;BME280;65949;53.132;17.930;2023-07-22T07:15:32;100525.79;;;19.73;58.89
77017;BME280;65949;53.132;17.930;2023-07-22T07:17:59;100529.27;;;19.86;58.31
77017;BME280;65949;53.132;17.930;2023-07-22T07:20:25;100530.86;;;19.94;58.30
77017;BME280;65949;53.132;17.930;2023-07-22T07:22:52;100537.62;;;20.07;58.36
77017;BME280;65949;53.132;17.930;2023-07-22T07:25:18;100537.04;;;20.24;58.05
77017;BME280;65949;53.132;17.930;2023-07-22T07:27:45;100538.02;;;20.42;57.43
77017;BME280;65949;53.132;17.930;2023-07-22T07:30:12;100536.02;;;20.55;56.45
77017;BME280;65949;53.132;17.930;2023-07-22T07:32:38;100538.13;;;20.58;55.84
77017;BME280;65949;53.132;17.930;2023-07-22T07:35:05;100536.34;;;20.61;55.83
77017;BME280;65949;53.132;17.930;2023-07-22T07:37:32;100543.14;;;20.69;55.23
77017;BME280;65949;53.132;17.930;2023-07-22T07:39:59;100550.15;;;20.74;55.37
77017;BME280;65949;53.132;17.930;2023-07-22T07:42:26;100547.40;;;20.95;54.85
77017;BME280;65949;53.132;17.930;2023-07-22T07:44:54;100549.56;;;21.12;54.57
77017;BME280;65949;53.132;17.930;2023-07-22T07:47:21;100554.92;;;21.20;54.25
77017;BME280;65949;53.132;17.930;2023-07-22T07:49:48;100554.38;;;21.45;53.82
77017;BME280;65949;53.132;17.930;2023-07-22T07:52:15;100547.71;;;21.56;53.14
77017;BME280;65949;53.132;17.930;2023-07-22T07:54:42;100551.52;;;21.67;53.16
77017;BME280;65949;53.132;17.930;2023-07-22T07:57:12;100557.10;;;21.74;52.20
77017;BME280;65949;53.132;17.930;2023-07-22T07:59:38;100561.83;;;21.91;52.75
77017;BME280;65949;53.132;17.930;2023-07-22T08:02:06;100560.25;;;22.03;51.69
77017;BME280;65949;53.132;17.930;2023-07-22T08:04:36;100561.51;;;21.90;52.31
77017;BME280;65949;53.132;17.930;2023-07-22T08:07:06;100571.27;;;21.83;51.93
77017;BME280;65949;53.132;17.930;2023-07-22T08:09:33;100567.69;;;21.73;52.05
77017;BME280;65949;53.132;17.930;2023-07-22T08:12:01;100567.82;;;21.82;52.40
77017;BME280;65949;53.132;17.930;2023-07-22T08:14:28;100576.39;;;22.04;51.94
77017;BME280;65949;53.132;17.930;2023-07-22T08:16:55;100579.84;;;22.17;51.64
77017;BME280;65949;53.132;17.930;2023-07-22T08:19:30;100580.15;;;22.29;51.19
77017;BME280;65949;53.132;17.930;2023-07-22T08:21:58;100579.66;;;22.46;51.16
77017;BME280;65949;53.132;17.930;2023-07-22T08:24:25;100579.63;;;22.69;50.58
77017;BME280;65949;53.132;17.930;2023-07-22T08:26:52;100581.82;;;22.69;50.61
77017;BME280;65949;53.132;17.930;2023-07-22T08:29:18;100584.14;;;22.56;50.63
77017;BME280;65949;53.132;17.930;2023-07-22T08:31:45;100584.36;;;22.46;50.82
77017;BME280;65949;53.132;17.930;2023-07-22T08:34:11;100586.94;;;22.20;51.85
77017;BME280;65949;53.132;17.930;2023-07-22T08:36:38;100586.16;;;21.90;53.71
77017;BME280;65949;53.132;17.930;2023-07-22T08:39:05;100592.25;;;21.59;54.43
77017;BME280;65949;53.132;17.930;2023-07-22T08:41:32;100595.58;;;21.30;55.66
77017;BME280;65949;53.132;17.930;2023-07-22T08:44:00;100596.15;;;20.87;56.77
77017;BME280;65949;53.132;17.930;2023-07-22T08:46:33;100601.06;;;20.58;57.60
77017;BME280;65949;53.132;17.930;2023-07-22T08:49:00;100605.77;;;20.29;58.64
77017;BME280;65949;53.132;17.930;2023-07-22T08:51:27;100607.80;;;20.11;58.82
77017;BME280;65949;53.132;17.930;2023-07-22T08:53:56;100618.13;;;20.07;58.91
77017;BME280;65949;53.132;17.930;2023-07-22T08:56:26;100618.08;;;20.13;58.85
77017;BME280;65949;53.132;17.930;2023-07-22T08:58:53;100621.04;;;20.27;58.27
77017;BME280;65949;53.132;17.930;2023-07-22T09:01:20;100624.64;;;20.34;58.01
77017;BME280;65949;53.132;17.930;2023-07-22T09:03:48;100622.48;;;20.33;58.30
77017;BME280;65949;53.132;17.930;2023-07-22T09:06:15;100623.67;;;20.27;58.21
77017;BME280;65949;53.132;17.930;2023-07-22T09:08:42;100625.91;;;20.22;58.49
77017;BME280;65949;53.132;17.930;2023-07-22T09:11:09;100629.47;;;20.14;58.96
77017;BME280;65949;53.132;17.930;2023-07-22T09:13:35;100631.55;;;20.08;59.20
77017;BME280;65949;53.132;17.930;2023-07-22T09:16:05;100635.95;;;20.03;59.37
77017;BME280;65949;53.132;17.930;2023-07-22T09:18:33;100636.09;;;19.97;59.92
77017;BME280;65949;53.132;17.930;2023-07-22T09:21:00;100635.98;;;19.89;60.47
77017;BME280;65949;53.132;17.930;2023-07-22T09:23:35;100638.88;;;19.97;60.09
77017;BME280;65949;53.132;17.930;2023-07-22T09:26:11;100641.05;;;20.00;59.72
77017;BME280;65949;53.132;17.930;2023-07-22T09:28:57;100645.67;;;19.97;59.87
77017;BME280;65949;53.132;17.930;2023-07-22T09:31:26;100641.16;;;19.94;60.04
77017;BME280;65949;53.132;17.930;2023-07-22T09:33:53;100650.89;;;20.01;60.05
77017;BME280;65949;53.132;17.930;2023-07-22T09:36:23;100653.67;;;19.92;60.05
77017;BME280;65949;53.132;17.930;2023-07-22T09:39:00;100656.84;;;19.64;60.37
77017;BME280;65949;53.132;17.930;2023-07-22T09:41:29;100662.65;;;19.45;60.76
77017;BME280;65949;53.132;17.930;2023-07-22T09:44:02;100666.08;;;19.51;60.85
77017;BME280;65949;53.132;17.930;2023-07-22T09:46:32;100658.30;;;19.41;60.50
77017;BME280;65949;53.132;17.930;2023-07-22T09:49:05;100659.77;;;19.39;59.98
77017;BME280;65949;53.132;17.930;2023-07-22T09:51:36;100665.81;;;19.33;60.19
77017;BME280;65949;53.132;17.930;2023-07-22T09:54:04;100670.01;;;19.23;60.30
77017;BME280;65949;53.132;17.930;2023-07-22T09:56:32;100672.46;;;19.14;60.54
77017;BME280;65949;53.132;17.930;2023-07-22T09:58:59;100669.21;;;19.27;60.68
77017;BME280;65949;53.132;17.930;2023-07-22T10:01:26;100667.21;;;19.46;60.46
77017;BME280;65949;53.132;17.930;2023-07-22T10:03:54;100672.48;;;19.60;60.31
77017;BME280;65949;53.132;17.930;2023-07-22T10:06:26;100672.77;;;19.69;58.83
77017;BME280;65949;53.132;17.930;2023-07-22T10:09:02;100670.48;;;19.73;58.35
77017;BME280;65949;53.132;17.930;2023-07-22T10:11:29;100663.73;;;19.88;57.55
77017;BME280;65949;53.132;17.930;2023-07-22T10:13:56;100666.95;;;20.03;56.92
77017;BME280;65949;53.132;17.930;2023-07-22T10:16:23;100664.48;;;20.12;55.80
77017;BME280;65949;53.132;17.930;2023-07-22T10:18:51;100662.98;;;20.28;55.49
77017;BME280;65949;53.132;17.930;2023-07-22T10:21:20;100666.44;;;20.48;54.97
77017;BME280;65949;53.132;17.930;2023-07-22T10:23:48;100668.41;;;20.68;54.78
77017;BME280;65949;53.132;17.930;2023-07-22T10:26:16;100667.45;;;20.81;54.55
77017;BME280;65949;53.132;17.930;2023-07-22T10:28:45;100673.13;;;20.92;53.66
77017;BME280;65949;53.132;17.930;2023-07-22T10:31:15;100671.34;;;20.83;53.00
77017;BME280;65949;53.132;17.930;2023-07-22T10:33:46;100672.86;;;20.76;52.94
77017;BME280;65949;53.132;17.930;2023-07-22T10:36:15;100668.03;;;20.73;52.60
77017;BME280;65949;53.132;17.930;2023-07-22T10:38:56;100664.56;;;20.80;52.81
77017;BME280;65949;53.132;17.930;2023-07-22T10:41:23;100667.94;;;20.91;51.61
77017;BME280;65949;53.132;17.930;2023-07-22T10:43:58;100666.52;;;21.03;50.95
77017;BME280;65949;53.132;17.930;2023-07-22T10:46:34;100661.01;;;21.13;50.21
77017;BME280;65949;53.132;17.930;2023-07-22T10:51:38;100662.33;;;21.38;49.70
77017;BME280;65949;53.132;17.930;2023-07-22T10:54:11;100660.58;;;21.26;49.77
77017;BME280;65949;53.132;17.930;2023-07-22T10:56:42;100667.89;;;21.29;50.20
77017;BME280;65949;53.132;17.930;2023-07-22T10:59:12;100663.42;;;21.43;50.25
77017;BME280;65949;53.132;17.930;2023-07-22T11:01:39;100664.05;;;21.68;49.92
77017;BME280;65949;53.132;17.930;2023-07-22T11:04:24;100662.88;;;21.61;49.30
77017;BME280;65949;53.132;17.930;2023-07-22T11:07:03;100666.23;;;21.58;48.43
77017;BME280;65949;53.132;17.930;2023-07-22T11:12:11;100664.80;;;21.70;47.08
77017;BME280;65949;53.132;17.930;2023-07-22T11:14:40;100668.09;;;21.72;45.21
77017;BME280;65949;53.132;17.930;2023-07-22T11:17:08;100664.08;;;21.73;45.26
77017;BME280;65949;53.132;17.930;2023-07-22T11:19:35;100659.66;;;21.85;45.25
77017;BME280;65949;53.132;17.930;2023-07-22T11:22:01;100664.52;;;22.04;45.18
77017;BME280;65949;53.132;17.930;2023-07-22T11:24:29;100660.70;;;22.04;43.78
77017;BME280;65949;53.132;17.930;2023-07-22T11:26:55;100665.34;;;22.02;44.94
77017;BME280;65949;53.132;17.930;2023-07-22T11:29:22;100664.21;;;22.09;43.17
77017;BME280;65949;53.132;17.930;2023-07-22T11:31:50;100662.44;;;22.12;43.69
77017;BME280;65949;53.132;17.930;2023-07-22T11:34:19;100665.93;;;22.12;43.70
77017;BME280;65949;53.132;17.930;2023-07-22T11:36:48;100664.88;;;22.23;43.90
77017;BME280;65949;53.132;17.930;2023-07-22T11:39:17;100664.90;;;22.36;43.96
77017;BME280;65949;53.132;17.930;2023-07-22T11:41:44;100670.20;;;22.31;43.26
77017;BME280;65949;53.132;17.930;2023-07-22T11:44:14;100667.73;;;22.32;43.31
77017;BME280;65949;53.132;17.930;2023-07-22T11:47:06;100667.78;;;22.38;43.16
77017;BME280;65949;53.132;17.930;2023-07-22T11:49:40;100665.84;;;22.48;43.16
77017;BME280;65949;53.132;17.930;2023-07-22T11:52:09;100669.73;;;22.44;43.28
77017;BME280;65949;53.132;17.930;2023-07-22T11:54:41;100671.73;;;22.36;43.51
77017;BME280;65949;53.132;17.930;2023-07-22T11:57:14;100675.27;;;22.21;43.97
77017;BME280;65949;53.132;17.930;2023-07-22T11:59:47;100678.01;;;22.04;44.74
77017;BME280;65949;53.132;17.930;2023-07-22T12:02:21;100674.16;;;22.02;45.03
77017;BME280;65949;53.132;17.930;2023-07-22T12:04:53;100666.58;;;22.01;45.34
77017;BME280;65949;53.132;17.930;2023-07-22T12:07:24;100669.34;;;22.21;45.42
77017;BME280;65949;53.132;17.930;2023-07-22T12:09:52;100667.19;;;22.43;43.16
77017;BME280;65949;53.132;17.930;2023-07-22T12:12:19;100675.13;;;22.66;43.66
77017;BME280;65949;53.132;17.930;2023-07-22T12:14:46;100680.16;;;22.79;41.11
77017;BME280;65949;53.132;17.930;2023-07-22T12:17:12;100677.73;;;22.92;40.90
77017;BME280;65949;53.132;17.930;2023-07-22T12:19:50;100670.90;;;23.18;39.81
77017;BME280;65949;53.132;17.930;2023-07-22T12:22:17;100672.32;;;23.43;38.97
77017;BME280;65949;53.132;17.930;2023-07-22T12:24:47;100671.77;;;23.63;39.39
77017;BME280;65949;53.132;17.930;2023-07-22T12:27:13;100668.86;;;23.71;39.12
77017;BME280;65949;53.132;17.930;2023-07-22T12:29:40;100673.83;;;23.61;38.94
77017;BME280;65949;53.132;17.930;2023-07-22T12:32:07;100675.60;;;23.53;39.49
77017;BME280;65949;53.132;17.930;2023-07-22T12:34:34;100683.86;;;23.50;39.41
77017;BME280;65949;53.132;17.930;2023-07-22T12:37:00;100679.23;;;23.33;38.95
77017;BME280;65949;53.132;17.930;2023-07-22T12:39:27;100677.34;;;23.18;37.39
77017;BME280;65949;53.132;17.930;2023-07-22T12:41:55;100672.33;;;23.03;37.62
77017;BME280;65949;53.132;17.930;2023-07-22T12:44:22;100670.22;;;23.01;38.50
77017;BME280;65949;53.132;17.930;2023-07-22T12:46:48;100671.99;;;23.04;38.89
77017;BME280;65949;53.132;17.930;2023-07-22T12:49:15;100675.02;;;23.19;39.12